sensor_id;sensor_type;location;lat;lon;timestamp;P1;durP1;ratioP1;P2;durP2;ratioP2
71806;SDS011;59655;42.590;23.364;2024-03-29T00:00:57;4.47;;;1.50;;
71806;SDS011;59655;42.590;23.364;2024-03-29T00:03:24;4.80;;;1.40;;
71806;SDS011;59655;42.590;23.364;2024-03-29T00:05:49;5.80;;;1.60;;
71806;SDS011;59655;42.590;23.364;2024-03-29T00:08:15;4.40;;;1.60;;
71806;SDS011;59655;42.590;23.364;2024-03-29T00:10:40;5.18;;;1.60;;
71806;SDS011;59655;42.590;23.364;2024-03-29T00:25:52;6.03;;;1.95;;
71806;SDS011;59655;42.590;23.364;2024-03-29T00:28:17;7.45;;;1.45;;
71806;SDS011;59655;42.590;23.364;2024-03-29T00:30:43;8.73;;;2.10;;
71806;SDS011;59655;42.590;23.364;2024-03-29T00:33:09;6.18;;;1.58;;
71806;SDS011;59655;42.590;23.364;2024-03-29T00:35:34;6.63;;;2.00;;
71806;SDS011;59655;42.590;23.364;2024-03-29T00:37:59;9.50;;;3.55;;
71806;SDS011;59655;42.590;23.364;2024-03-29T00:40:24;7.00;;;2.30;;
71806;SDS011;59655;42.590;23.364;2024-03-29T00:42:50;6.25;;;2.00;;
71806;SDS011;59655;42.590;23.364;2024-03-29T00:45:15;4.32;;;1.65;;
71806;SDS011;59655;42.590;23.364;2024-03-29T00:47:40;6.07;;;2.40;;
71806;SDS011;59655;42.590;23.364;2024-03-29T00:50:06;8.13;;;2.38;;
71806;SDS011;59655;42.590;23.364;2024-03-29T00:54:59;7.90;;;2.17;;
71806;SDS011;59655;42.590;23.364;2024-03-29T00:57:25;6.20;;;1.90;;
71806;SDS011;59655;42.590;23.364;2024-03-29T00:59:50;4.47;;;1.70;;
71806;SDS011;59655;42.590;23.364;2024-03-29T01:02:15;3.67;;;1.67;;
71806;SDS011;59655;42.590;23.364;2024-03-29T01:04:41;4.65;;;2.15;;
71806;SDS011;59655;42.590;23.364;2024-03-29T01:07:06;5.88;;;2.00;;
71806;SDS011;59655;42.590;23.364;2024-03-29T01:09:32;4.43;;;2.00;;
71806;SDS011;59655;42.590;23.364;2024-03-29T01:11:57;4.40;;;1.45;;
71806;SDS011;59655;42.590;23.364;2024-03-29T01:14:22;6.25;;;1.95;;
71806;SDS011;59655;42.590;23.364;2024-03-29T01:16:48;5.43;;;1.85;;
71806;SDS011;59655;42.590;23.364;2024-03-29T01:19:13;7.45;;;2.38;;
71806;SDS011;59655;42.590;23.364;2024-03-29T01:21:38;6.00;;;2.42;;
71806;SDS011;59655;42.590;23.364;2024-03-29T01:24:04;4.68;;;1.40;;
71806;SDS011;59655;42.590;23.364;2024-03-29T01:26:29;3.40;;;1.30;;
71806;SDS011;59655;42.590;23.364;2024-03-29T01:28:55;4.82;;;1.50;;
71806;SDS011;59655;42.590;23.364;2024-03-29T01:31:21;7.43;;;1.58;;
71806;SDS011;59655;42.590;23.364;2024-03-29T01:33:47;10.35;;;3.08;;
71806;SDS011;59655;42.590;23.364;2024-03-29T01:36:13;11.52;;;3.47;;
71806;SDS011;59655;42.590;23.364;2024-03-29T01:38:38;10.73;;;3.70;;
71806;SDS011;59655;42.590;23.364;2024-03-29T01:41:03;7.65;;;2.42;;
71806;SDS011;59655;42.590;23.364;2024-03-29T01:43:29;6.10;;;2.50;;
71806;SDS011;59655;42.590;23.364;2024-03-29T01:45:55;10.10;;;2.53;;
71806;SDS011;59655;42.590;23.364;2024-03-29T01:48:21;6.22;;;1.80;;
71806;SDS011;59655;42.590;23.364;2024-03-29T01:50:48;5.90;;;1.88;;
71806;SDS011;59655;42.590;23.364;2024-03-29T01:53:14;8.27;;;1.83;;
71806;SDS011;59655;42.590;23.364;2024-03-29T01:55:41;5.38;;;2.47;;
71806;SDS011;59655;42.590;23.364;2024-03-29T01:58:10;5.93;;;1.50;;
71806;SDS011;59655;42.590;23.364;2024-03-29T02:00:36;5.88;;;1.58;;
71806;SDS011;59655;42.590;23.364;2024-03-29T02:03:04;3.80;;;1.40;;
71806;SDS011;59655;42.590;23.364;2024-03-29T02:05:35;3.85;;;1.42;;
71806;SDS011;59655;42.590;23.364;2024-03-29T02:08:02;4.22;;;1.25;;
71806;SDS011;59655;42.590;23.364;2024-03-29T02:10:29;4.28;;;1.50;;
71806;SDS011;59655;42.590;23.364;2024-03-29T02:12:54;5.82;;;2.92;;
71806;SDS011;59655;42.590;23.364;2024-03-29T02:15:20;5.88;;;1.60;;
71806;SDS011;59655;42.590;23.364;2024-03-29T02:17:45;3.92;;;1.25;;
71806;SDS011;59655;42.590;23.364;2024-03-29T02:20:10;4.85;;;1.55;;
71806;SDS011;59655;42.590;23.364;2024-03-29T02:22:36;4.13;;;1.23;;
71806;SDS011;59655;42.590;23.364;2024-03-29T02:25:09;4.07;;;1.83;;
71806;SDS011;59655;42.590;23.364;2024-03-29T02:27:36;2.88;;;0.90;;
71806;SDS011;59655;42.590;23.364;2024-03-29T02:30:02;4.70;;;1.15;;
71806;SDS011;59655;42.590;23.364;2024-03-29T02:32:28;4.10;;;1.80;;
71806;SDS011;59655;42.590;23.364;2024-03-29T02:34:53;4.65;;;2.47;;
71806;SDS011;59655;42.590;23.364;2024-03-29T02:37:18;3.15;;;1.65;;
71806;SDS011;59655;42.590;23.364;2024-03-29T02:39:44;5.40;;;1.30;;
71806;SDS011;59655;42.590;23.364;2024-03-29T02:42:09;6.75;;;2.10;;
71806;SDS011;59655;42.590;23.364;2024-03-29T02:44:35;4.00;;;1.83;;
71806;SDS011;59655;42.590;23.364;2024-03-29T02:47:00;3.03;;;1.30;;
71806;SDS011;59655;42.590;23.364;2024-03-29T02:49:25;4.10;;;0.80;;
71806;SDS011;59655;42.590;23.364;2024-03-29T02:51:51;3.53;;;1.10;;
71806;SDS011;59655;42.590;23.364;2024-03-29T02:54:18;4.53;;;1.35;;
71806;SDS011;59655;42.590;23.364;2024-03-29T02:56:43;4.22;;;1.10;;
71806;SDS011;59655;42.590;23.364;2024-03-29T02:59:09;4.50;;;1.20;;
71806;SDS011;59655;42.590;23.364;2024-03-29T03:01:34;2.75;;;1.00;;
71806;SDS011;59655;42.590;23.364;2024-03-29T03:03:59;5.05;;;1.60;;
71806;SDS011;59655;42.590;23.364;2024-03-29T03:06:25;5.65;;;2.22;;
71806;SDS011;59655;42.590;23.364;2024-03-29T03:08:50;6.57;;;2.10;;
71806;SDS011;59655;42.590;23.364;2024-03-29T03:11:34;5.75;;;1.63;;
71806;SDS011;59655;42.590;23.364;2024-03-29T03:13:59;6.38;;;1.42;;
71806;SDS011;59655;42.590;23.364;2024-03-29T03:16:24;3.20;;;1.48;;
71806;SDS011;59655;42.590;23.364;2024-03-29T03:18:50;5.68;;;1.63;;
71806;SDS011;59655;42.590;23.364;2024-03-29T03:21:16;10.63;;;3.97;;
71806;SDS011;59655;42.590;23.364;2024-03-29T03:23:41;7.10;;;2.40;;
71806;SDS011;59655;42.590;23.364;2024-03-29T03:26:06;7.20;;;2.45;;
71806;SDS011;59655;42.590;23.364;2024-03-29T03:28:32;10.85;;;3.03;;
71806;SDS011;59655;42.590;23.364;2024-03-29T03:30:57;6.07;;;1.52;;
71806;SDS011;59655;42.590;23.364;2024-03-29T03:33:23;5.70;;;1.38;;
71806;SDS011;59655;42.590;23.364;2024-03-29T03:35:48;7.13;;;2.45;;
71806;SDS011;59655;42.590;23.364;2024-03-29T03:38:14;14.50;;;5.40;;
71806;SDS011;59655;42.590;23.364;2024-03-29T03:40:40;19.67;;;6.18;;
71806;SDS011;59655;42.590;23.364;2024-03-29T03:43:06;9.07;;;3.75;;
71806;SDS011;59655;42.590;23.364;2024-03-29T03:45:38;4.43;;;1.75;;
71806;SDS011;59655;42.590;23.364;2024-03-29T03:48:05;6.07;;;1.38;;
71806;SDS011;59655;42.590;23.364;2024-03-29T03:50:32;4.53;;;1.20;;
71806;SDS011;59655;42.590;23.364;2024-03-29T03:52:57;3.03;;;1.10;;
71806;SDS011;59655;42.590;23.364;2024-03-29T03:55:23;3.83;;;1.02;;
71806;SDS011;59655;42.590;23.364;2024-03-29T03:57:49;6.38;;;1.27;;
71806;SDS011;59655;42.590;23.364;2024-03-29T04:00:14;3.13;;;1.10;;
71806;SDS011;59655;42.590;23.364;2024-03-29T04:02:40;7.32;;;1.90;;
71806;SDS011;59655;42.590;23.364;2024-03-29T04:05:06;9.15;;;3.47;;
71806;SDS011;59655;42.590;23.364;2024-03-29T04:07:32;5.68;;;2.00;;
71806;SDS011;59655;42.590;23.364;2024-03-29T04:09:57;5.97;;;2.20;;
71806;SDS011;59655;42.590;23.364;2024-03-29T04:12:22;8.00;;;2.28;;
71806;SDS011;59655;42.590;23.364;2024-03-29T04:14:48;6.43;;;2.10;;
71806;SDS011;59655;42.590;23.364;2024-03-29T04:17:13;4.90;;;1.75;;
71806;SDS011;59655;42.590;23.364;2024-03-29T04:19:39;4.05;;;1.20;;
71806;SDS011;59655;42.590;23.364;2024-03-29T04:22:05;9.48;;;1.50;;
71806;SDS011;59655;42.590;23.364;2024-03-29T04:24:31;5.28;;;1.45;;
71806;SDS011;59655;42.590;23.364;2024-03-29T04:26:56;4.63;;;1.30;;
71806;SDS011;59655;42.590;23.364;2024-03-29T04:29:22;7.70;;;1.77;;
71806;SDS011;59655;42.590;23.364;2024-03-29T04:31:48;6.82;;;2.15;;
71806;SDS011;59655;42.590;23.364;2024-03-29T04:34:13;6.28;;;3.58;;
71806;SDS011;59655;42.590;23.364;2024-03-29T04:36:39;7.28;;;1.38;;
71806;SDS011;59655;42.590;23.364;2024-03-29T04:39:04;10.55;;;2.08;;
71806;SDS011;59655;42.590;23.364;2024-03-29T04:41:30;8.55;;;2.20;;
71806;SDS011;59655;42.590;23.364;2024-03-29T04:43:59;7.90;;;1.50;;
71806;SDS011;59655;42.590;23.364;2024-03-29T04:46:31;9.30;;;1.50;;
71806;SDS011;59655;42.590;23.364;2024-03-29T04:48:57;6.82;;;1.50;;
71806;SDS011;59655;42.590;23.364;2024-03-29T04:51:22;7.85;;;0.98;;
71806;SDS011;59655;42.590;23.364;2024-03-29T04:53:48;5.55;;;1.23;;
71806;SDS011;59655;42.590;23.364;2024-03-29T04:56:13;4.90;;;1.63;;
71806;SDS011;59655;42.590;23.364;2024-03-29T04:58:39;7.38;;;1.83;;
71806;SDS011;59655;42.590;23.364;2024-03-29T05:01:04;5.47;;;1.58;;
71806;SDS011;59655;42.590;23.364;2024-03-29T05:03:29;11.48;;;2.13;;
71806;SDS011;59655;42.590;23.364;2024-03-29T05:05:55;10.38;;;2.47;;
71806;SDS011;59655;42.590;23.364;2024-03-29T05:08:21;7.32;;;3.83;;
71806;SDS011;59655;42.590;23.364;2024-03-29T05:10:48;7.93;;;3.20;;
71806;SDS011;59655;42.590;23.364;2024-03-29T05:13:15;7.35;;;3.10;;
71806;SDS011;59655;42.590;23.364;2024-03-29T05:15:40;8.55;;;3.63;;
71806;SDS011;59655;42.590;23.364;2024-03-29T05:18:05;7.97;;;2.97;;
71806;SDS011;59655;42.590;23.364;2024-03-29T05:20:31;9.07;;;2.50;;
71806;SDS011;59655;42.590;23.364;2024-03-29T05:22:57;3.03;;;1.00;;
71806;SDS011;59655;42.590;23.364;2024-03-29T05:25:23;5.93;;;1.60;;
71806;SDS011;59655;42.590;23.364;2024-03-29T05:27:48;7.03;;;2.38;;
71806;SDS011;59655;42.590;23.364;2024-03-29T05:30:14;7.20;;;2.22;;
71806;SDS011;59655;42.590;23.364;2024-03-29T05:32:39;8.25;;;2.90;;
71806;SDS011;59655;42.590;23.364;2024-03-29T05:35:05;15.15;;;4.13;;
71806;SDS011;59655;42.590;23.364;2024-03-29T05:37:31;11.23;;;3.58;;
71806;SDS011;59655;42.590;23.364;2024-03-29T05:39:56;10.27;;;2.80;;
71806;SDS011;59655;42.590;23.364;2024-03-29T05:42:29;3.80;;;1.20;;
71806;SDS011;59655;42.590;23.364;2024-03-29T05:44:56;6.40;;;0.90;;
71806;SDS011;59655;42.590;23.364;2024-03-29T05:47:21;2.28;;;0.60;;
71806;SDS011;59655;42.590;23.364;2024-03-29T05:49:47;3.72;;;0.70;;
71806;SDS011;59655;42.590;23.364;2024-03-29T05:52:13;3.50;;;0.70;;
71806;SDS011;59655;42.590;23.364;2024-03-29T05:54:42;3.88;;;0.90;;
71806;SDS011;59655;42.590;23.364;2024-03-29T05:57:08;4.07;;;0.80;;
71806;SDS011;59655;42.590;23.364;2024-03-29T05:59:34;4.40;;;0.70;;
71806;SDS011;59655;42.590;23.364;2024-03-29T06:02:00;3.42;;;0.95;;
71806;SDS011;59655;42.590;23.364;2024-03-29T06:04:26;5.07;;;0.80;;
71806;SDS011;59655;42.590;23.364;2024-03-29T06:07:04;3.65;;;1.20;;
71806;SDS011;59655;42.590;23.364;2024-03-29T06:09:30;2.95;;;0.70;;
71806;SDS011;59655;42.590;23.364;2024-03-29T06:11:56;5.70;;;0.88;;
71806;SDS011;59655;42.590;23.364;2024-03-29T06:14:25;3.70;;;0.88;;
71806;SDS011;59655;42.590;23.364;2024-03-29T06:17:09;1.88;;;0.60;;
71806;SDS011;59655;42.590;23.364;2024-03-29T06:19:50;6.22;;;0.80;;
71806;SDS011;59655;42.590;23.364;2024-03-29T06:22:19;3.85;;;0.90;;
71806;SDS011;59655;42.590;23.364;2024-03-29T06:24:44;5.85;;;1.00;;
71806;SDS011;59655;42.590;23.364;2024-03-29T06:27:10;9.40;;;1.40;;
71806;SDS011;59655;42.590;23.364;2024-03-29T06:29:35;3.70;;;0.88;;
71806;SDS011;59655;42.590;23.364;2024-03-29T06:32:01;3.45;;;1.13;;
71806;SDS011;59655;42.590;23.364;2024-03-29T06:34:30;4.85;;;0.88;;
71806;SDS011;59655;42.590;23.364;2024-03-29T06:36:55;3.33;;;1.02;;
71806;SDS011;59655;42.590;23.364;2024-03-29T06:39:21;2.78;;;1.00;;
71806;SDS011;59655;42.590;23.364;2024-03-29T06:41:46;3.50;;;0.68;;
71806;SDS011;59655;42.590;23.364;2024-03-29T06:44:13;3.65;;;0.80;;
71806;SDS011;59655;42.590;23.364;2024-03-29T06:46:38;4.53;;;1.33;;
71806;SDS011;59655;42.590;23.364;2024-03-29T06:49:04;5.07;;;0.90;;
71806;SDS011;59655;42.590;23.364;2024-03-29T06:51:30;3.35;;;0.93;;
71806;SDS011;59655;42.590;23.364;2024-03-29T06:53:55;2.47;;;0.60;;
71806;SDS011;59655;42.590;23.364;2024-03-29T06:56:21;6.40;;;0.80;;
71806;SDS011;59655;42.590;23.364;2024-03-29T06:58:46;2.50;;;0.90;;
71806;SDS011;59655;42.590;23.364;2024-03-29T07:01:11;2.42;;;0.60;;
71806;SDS011;59655;42.590;23.364;2024-03-29T07:03:37;3.33;;;0.65;;
71806;SDS011;59655;42.590;23.364;2024-03-29T07:06:02;3.05;;;0.63;;
71806;SDS011;59655;42.590;23.364;2024-03-29T07:08:28;3.30;;;0.80;;
71806;SDS011;59655;42.590;23.364;2024-03-29T07:11:00;2.20;;;0.63;;
71806;SDS011;59655;42.590;23.364;2024-03-29T07:13:28;2.25;;;0.40;;
71806;SDS011;59655;42.590;23.364;2024-03-29T07:15:56;1.73;;;0.63;;
71806;SDS011;59655;42.590;23.364;2024-03-29T07:18:22;5.80;;;0.70;;
71806;SDS011;59655;42.590;23.364;2024-03-29T07:20:47;3.50;;;0.70;;
71806;SDS011;59655;42.590;23.364;2024-03-29T07:23:13;5.72;;;0.90;;
71806;SDS011;59655;42.590;23.364;2024-03-29T07:25:39;2.70;;;0.77;;
71806;SDS011;59655;42.590;23.364;2024-03-29T07:28:08;3.75;;;0.85;;
71806;SDS011;59655;42.590;23.364;2024-03-29T07:30:35;4.00;;;0.85;;
71806;SDS011;59655;42.590;23.364;2024-03-29T07:33:02;2.83;;;0.47;;
71806;SDS011;59655;42.590;23.364;2024-03-29T07:35:28;3.00;;;0.57;;
71806;SDS011;59655;42.590;23.364;2024-03-29T07:37:54;4.63;;;0.75;;
71806;SDS011;59655;42.590;23.364;2024-03-29T07:40:19;6.40;;;0.90;;
71806;SDS011;59655;42.590;23.364;2024-03-29T07:42:44;6.00;;;1.00;;
71806;SDS011;59655;42.590;23.364;2024-03-29T07:45:10;7.88;;;0.90;;
71806;SDS011;59655;42.590;23.364;2024-03-29T07:47:35;4.15;;;0.80;;
71806;SDS011;59655;42.590;23.364;2024-03-29T07:50:00;9.05;;;0.90;;
71806;SDS011;59655;42.590;23.364;2024-03-29T07:52:26;4.95;;;1.00;;
71806;SDS011;59655;42.590;23.364;2024-03-29T07:54:51;3.17;;;0.88;;
71806;SDS011;59655;42.590;23.364;2024-03-29T07:57:16;2.88;;;0.80;;
71806;SDS011;59655;42.590;23.364;2024-03-29T07:59:42;2.42;;;0.70;;
71806;SDS011;59655;42.590;23.364;2024-03-29T08:02:08;3.50;;;0.70;;
71806;SDS011;59655;42.590;23.364;2024-03-29T08:04:34;5.43;;;0.80;;
71806;SDS011;59655;42.590;23.364;2024-03-29T08:06:59;3.03;;;0.80;;
71806;SDS011;59655;42.590;23.364;2024-03-29T08:09:25;4.55;;;0.77;;
71806;SDS011;59655;42.590;23.364;2024-03-29T08:11:50;5.13;;;0.95;;
71806;SDS011;59655;42.590;23.364;2024-03-29T08:14:15;3.40;;;0.90;;
71806;SDS011;59655;42.590;23.364;2024-03-29T08:16:41;8.13;;;1.00;;
71806;SDS011;59655;42.590;23.364;2024-03-29T08:19:07;5.10;;;0.95;;
71806;SDS011;59655;42.590;23.364;2024-03-29T08:21:33;1.80;;;0.65;;
71806;SDS011;59655;42.590;23.364;2024-03-29T08:23:58;2.60;;;0.70;;
71806;SDS011;59655;42.590;23.364;2024-03-29T08:26:25;2.90;;;0.70;;
71806;SDS011;59655;42.590;23.364;2024-03-29T08:28:50;3.97;;;0.60;;
71806;SDS011;59655;42.590;23.364;2024-03-29T08:31:16;6.95;;;1.20;;
71806;SDS011;59655;42.590;23.364;2024-03-29T08:33:41;4.13;;;0.98;;
71806;SDS011;59655;42.590;23.364;2024-03-29T08:36:08;4.80;;;0.73;;
71806;SDS011;59655;42.590;23.364;2024-03-29T08:38:34;2.95;;;0.63;;
71806;SDS011;59655;42.590;23.364;2024-03-29T08:41:00;7.78;;;1.10;;
71806;SDS011;59655;42.590;23.364;2024-03-29T08:43:25;4.75;;;0.70;;
71806;SDS011;59655;42.590;23.364;2024-03-29T08:45:51;7.88;;;0.85;;
71806;SDS011;59655;42.590;23.364;2024-03-29T08:48:17;4.95;;;0.65;;
71806;SDS011;59655;42.590;23.364;2024-03-29T08:50:42;4.00;;;0.98;;
71806;SDS011;59655;42.590;23.364;2024-03-29T08:53:08;5.95;;;0.82;;
71806;SDS011;59655;42.590;23.364;2024-03-29T08:55:33;4.85;;;0.60;;
71806;SDS011;59655;42.590;23.364;2024-03-29T08:57:59;6.72;;;0.88;;
71806;SDS011;59655;42.590;23.364;2024-03-29T09:00:26;2.40;;;0.52;;
71806;SDS011;59655;42.590;23.364;2024-03-29T09:02:52;3.15;;;0.70;;
71806;SDS011;59655;42.590;23.364;2024-03-29T09:05:18;3.53;;;0.73;;
71806;SDS011;59655;42.590;23.364;2024-03-29T09:07:43;3.60;;;0.60;;
71806;SDS011;59655;42.590;23.364;2024-03-29T09:10:08;3.45;;;0.70;;
71806;SDS011;59655;42.590;23.364;2024-03-29T09:12:34;3.63;;;0.77;;
71806;SDS011;59655;42.590;23.364;2024-03-29T09:14:59;3.75;;;0.60;;
71806;SDS011;59655;42.590;23.364;2024-03-29T09:17:25;2.88;;;0.70;;
71806;SDS011;59655;42.590;23.364;2024-03-29T09:19:51;4.18;;;0.65;;
71806;SDS011;59655;42.590;23.364;2024-03-29T09:22:17;2.40;;;0.60;;
71806;SDS011;59655;42.590;23.364;2024-03-29T09:24:43;2.72;;;0.77;;
71806;SDS011;59655;42.590;23.364;2024-03-29T09:27:08;4.97;;;0.60;;
71806;SDS011;59655;42.590;23.364;2024-03-29T09:29:34;2.20;;;0.90;;
71806;SDS011;59655;42.590;23.364;2024-03-29T09:31:59;3.88;;;0.85;;
71806;SDS011;59655;42.590;23.364;2024-03-29T09:34:27;3.63;;;0.80;;
71806;SDS011;59655;42.590;23.364;2024-03-29T09:36:56;3.35;;;0.75;;
71806;SDS011;59655;42.590;23.364;2024-03-29T09:39:22;3.47;;;0.60;;
71806;SDS011;59655;42.590;23.364;2024-03-29T09:41:48;5.47;;;0.80;;
71806;SDS011;59655;42.590;23.364;2024-03-29T09:44:15;3.42;;;0.60;;
71806;SDS011;59655;42.590;23.364;2024-03-29T09:46:42;4.15;;;0.70;;
71806;SDS011;59655;42.590;23.364;2024-03-29T09:49:08;5.05;;;1.00;;
71806;SDS011;59655;42.590;23.364;2024-03-29T09:51:34;3.45;;;0.70;;
71806;SDS011;59655;42.590;23.364;2024-03-29T09:54:01;1.83;;;0.63;;
71806;SDS011;59655;42.590;23.364;2024-03-29T09:56:29;6.40;;;1.02;;
71806;SDS011;59655;42.590;23.364;2024-03-29T09:58:55;5.68;;;1.05;;
71806;SDS011;59655;42.590;23.364;2024-03-29T10:01:20;6.65;;;1.10;;
71806;SDS011;59655;42.590;23.364;2024-03-29T10:03:48;5.22;;;0.80;;
71806;SDS011;59655;42.590;23.364;2024-03-29T10:06:16;5.18;;;1.42;;
71806;SDS011;59655;42.590;23.364;2024-03-29T10:08:44;3.63;;;1.00;;
71806;SDS011;59655;42.590;23.364;2024-03-29T10:11:10;4.35;;;0.80;;
71806;SDS011;59655;42.590;23.364;2024-03-29T10:13:35;7.70;;;1.00;;
71806;SDS011;59655;42.590;23.364;2024-03-29T10:16:01;4.55;;;0.68;;
71806;SDS011;59655;42.590;23.364;2024-03-29T10:18:28;3.05;;;0.60;;
71806;SDS011;59655;42.590;23.364;2024-03-29T10:21:02;5.50;;;0.80;;
71806;SDS011;59655;42.590;23.364;2024-03-29T10:23:29;10.30;;;1.70;;
71806;SDS011;59655;42.590;23.364;2024-03-29T10:25:55;5.65;;;0.88;;
71806;SDS011;59655;42.590;23.364;2024-03-29T10:28:21;4.78;;;0.75;;
71806;SDS011;59655;42.590;23.364;2024-03-29T10:30:47;4.97;;;1.38;;
71806;SDS011;59655;42.590;23.364;2024-03-29T10:33:13;5.07;;;0.90;;
71806;SDS011;59655;42.590;23.364;2024-03-29T10:35:41;3.75;;;0.85;;
71806;SDS011;59655;42.590;23.364;2024-03-29T10:38:09;3.85;;;1.00;;
71806;SDS011;59655;42.590;23.364;2024-03-29T10:40:35;5.10;;;1.33;;
71806;SDS011;59655;42.590;23.364;2024-03-29T10:43:06;5.55;;;1.40;;
71806;SDS011;59655;42.590;23.364;2024-03-29T10:45:37;3.42;;;1.23;;
71806;SDS011;59655;42.590;23.364;2024-03-29T10:48:03;6.47;;;1.13;;
71806;SDS011;59655;42.590;23.364;2024-03-29T10:50:34;4.97;;;1.05;;
71806;SDS011;59655;42.590;23.364;2024-03-29T10:53:00;5.55;;;0.90;;
71806;SDS011;59655;42.590;23.364;2024-03-29T10:55:26;5.20;;;1.00;;
71806;SDS011;59655;42.590;23.364;2024-03-29T10:57:54;7.85;;;1.30;;
71806;SDS011;59655;42.590;23.364;2024-03-29T11:02:49;4.22;;;1.20;;
71806;SDS011;59655;42.590;23.364;2024-03-29T11:05:16;4.18;;;0.95;;
71806;SDS011;59655;42.590;23.364;2024-03-29T11:07:42;5.57;;;1.13;;
71806;SDS011;59655;42.590;23.364;2024-03-29T11:10:27;4.22;;;1.30;;
71806;SDS011;59655;42.590;23.364;2024-03-29T11:12:59;7.05;;;1.77;;
71806;SDS011;59655;42.590;23.364;2024-03-29T11:15:29;5.25;;;1.00;;
71806;SDS011;59655;42.590;23.364;2024-03-29T11:17:55;7.25;;;1.10;;
71806;SDS011;59655;42.590;23.364;2024-03-29T11:20:25;7.78;;;0.90;;
71806;SDS011;59655;42.590;23.364;2024-03-29T11:23:05;8.27;;;1.58;;
71806;SDS011;59655;42.590;23.364;2024-03-29T11:25:42;5.72;;;1.25;;
71806;SDS011;59655;42.590;23.364;2024-03-29T11:28:09;8.55;;;1.20;;
71806;SDS011;59655;42.590;23.364;2024-03-29T11:31:21;6.55;;;1.77;;
71806;SDS011;59655;42.590;23.364;2024-03-29T11:33:31;2.85;;;0.90;;
71806;SDS011;59655;42.590;23.364;2024-03-29T11:35:58;6.70;;;1.00;;
71806;SDS011;59655;42.590;23.364;2024-03-29T11:38:31;3.13;;;0.90;;
71806;SDS011;59655;42.590;23.364;2024-03-29T11:43:31;5.38;;;1.10;;
71806;SDS011;59655;42.590;23.364;2024-03-29T11:45:58;4.53;;;1.20;;
71806;SDS011;59655;42.590;23.364;2024-03-29T11:48:26;4.97;;;1.10;;
71806;SDS011;59655;42.590;23.364;2024-03-29T11:50:52;8.43;;;1.92;;
71806;SDS011;59655;42.590;23.364;2024-03-29T11:53:19;10.48;;;1.70;;
71806;SDS011;59655;42.590;23.364;2024-03-29T11:55:45;7.45;;;1.80;;
71806;SDS011;59655;42.590;23.364;2024-03-29T11:58:11;6.53;;;1.52;;
71806;SDS011;59655;42.590;23.364;2024-03-29T12:00:39;9.20;;;2.05;;
71806;SDS011;59655;42.590;23.364;2024-03-29T12:03:05;5.13;;;1.38;;
71806;SDS011;59655;42.590;23.364;2024-03-29T12:05:31;4.53;;;1.10;;
71806;SDS011;59655;42.590;23.364;2024-03-29T12:07:57;4.47;;;1.20;;
71806;SDS011;59655;42.590;23.364;2024-03-29T12:10:30;7.38;;;2.10;;
71806;SDS011;59655;42.590;23.364;2024-03-29T12:12:56;8.68;;;2.53;;
71806;SDS011;59655;42.590;23.364;2024-03-29T12:15:23;10.35;;;2.92;;
71806;SDS011;59655;42.590;23.364;2024-03-29T12:17:59;7.22;;;2.10;;
71806;SDS011;59655;42.590;23.364;2024-03-29T12:20:29;7.00;;;2.42;;
71806;SDS011;59655;42.590;23.364;2024-03-29T12:22:55;7.43;;;1.17;;
71806;SDS011;59655;42.590;23.364;2024-03-29T12:27:49;7.50;;;1.67;;
71806;SDS011;59655;42.590;23.364;2024-03-29T12:30:14;7.60;;;1.77;;
71806;SDS011;59655;42.590;23.364;2024-03-29T12:32:40;4.65;;;1.23;;
71806;SDS011;59655;42.590;23.364;2024-03-29T12:35:09;9.93;;;2.42;;
71806;SDS011;59655;42.590;23.364;2024-03-29T12:37:36;14.20;;;3.33;;
71806;SDS011;59655;42.590;23.364;2024-03-29T12:40:01;12.93;;;3.00;;
71806;SDS011;59655;42.590;23.364;2024-03-29T12:42:39;6.25;;;0.98;;
71806;SDS011;59655;42.590;23.364;2024-03-29T12:45:05;5.28;;;1.48;;
71806;SDS011;59655;42.590;23.364;2024-03-29T12:47:32;7.20;;;1.10;;
71806;SDS011;59655;42.590;23.364;2024-03-29T12:49:59;7.13;;;1.52;;
71806;SDS011;59655;42.590;23.364;2024-03-29T12:52:36;11.48;;;2.88;;
71806;SDS011;59655;42.590;23.364;2024-03-29T12:55:04;8.88;;;1.77;;
71806;SDS011;59655;42.590;23.364;2024-03-29T12:57:30;5.65;;;1.30;;
71806;SDS011;59655;42.590;23.364;2024-03-29T12:59:56;6.82;;;1.50;;
71806;SDS011;59655;42.590;23.364;2024-03-29T13:02:21;6.93;;;1.40;;
71806;SDS011;59655;42.590;23.364;2024-03-29T13:04:48;6.20;;;2.03;;
71806;SDS011;59655;42.590;23.364;2024-03-29T13:07:13;5.72;;;0.80;;
71806;SDS011;59655;42.590;23.364;2024-03-29T13:09:40;4.88;;;1.10;;
71806;SDS011;59655;42.590;23.364;2024-03-29T13:12:05;5.85;;;1.30;;
71806;SDS011;59655;42.590;23.364;2024-03-29T13:14:31;7.60;;;1.52;;
71806;SDS011;59655;42.590;23.364;2024-03-29T13:16:57;7.40;;;1.38;;
71806;SDS011;59655;42.590;23.364;2024-03-29T13:19:22;7.75;;;1.20;;
71806;SDS011;59655;42.590;23.364;2024-03-29T13:21:48;5.18;;;1.58;;
71806;SDS011;59655;42.590;23.364;2024-03-29T13:24:14;9.35;;;1.42;;
71806;SDS011;59655;42.590;23.364;2024-03-29T13:26:39;5.97;;;1.10;;
71806;SDS011;59655;42.590;23.364;2024-03-29T13:29:04;8.85;;;1.58;;
71806;SDS011;59655;42.590;23.364;2024-03-29T13:31:30;3.28;;;1.13;;
71806;SDS011;59655;42.590;23.364;2024-03-29T13:33:56;8.05;;;1.40;;
71806;SDS011;59655;42.590;23.364;2024-03-29T13:36:29;5.63;;;1.25;;
71806;SDS011;59655;42.590;23.364;2024-03-29T13:38:55;3.97;;;1.30;;
71806;SDS011;59655;42.590;23.364;2024-03-29T13:41:20;6.03;;;1.40;;
71806;SDS011;59655;42.590;23.364;2024-03-29T13:43:46;8.15;;;1.60;;
71806;SDS011;59655;42.590;23.364;2024-03-29T13:46:11;5.80;;;1.50;;
71806;SDS011;59655;42.590;23.364;2024-03-29T13:48:37;11.95;;;2.80;;
71806;SDS011;59655;42.590;23.364;2024-03-29T13:51:02;5.82;;;1.70;;
71806;SDS011;59655;42.590;23.364;2024-03-29T13:53:28;4.13;;;1.10;;
71806;SDS011;59655;42.590;23.364;2024-03-29T13:55:59;6.05;;;1.02;;
71806;SDS011;59655;42.590;23.364;2024-03-29T13:58:25;6.55;;;1.70;;
71806;SDS011;59655;42.590;23.364;2024-03-29T14:00:52;6.18;;;1.70;;
71806;SDS011;59655;42.590;23.364;2024-03-29T14:03:20;5.00;;;1.02;;
71806;SDS011;59655;42.590;23.364;2024-03-29T14:05:47;9.18;;;1.98;;
71806;SDS011;59655;42.590;23.364;2024-03-29T14:08:13;4.97;;;1.30;;
71806;SDS011;59655;42.590;23.364;2024-03-29T14:10:39;9.82;;;2.13;;
71806;SDS011;59655;42.590;23.364;2024-03-29T14:13:04;4.75;;;1.30;;
71806;SDS011;59655;42.590;23.364;2024-03-29T14:15:29;4.78;;;1.15;;
71806;SDS011;59655;42.590;23.364;2024-03-29T14:17:55;6.03;;;1.60;;
71806;SDS011;59655;42.590;23.364;2024-03-29T14:20:21;5.60;;;1.35;;
71806;SDS011;59655;42.590;23.364;2024-03-29T14:22:47;5.13;;;1.10;;
71806;SDS011;59655;42.590;23.364;2024-03-29T14:25:17;7.07;;;1.60;;
71806;SDS011;59655;42.590;23.364;2024-03-29T14:27:45;4.93;;;1.42;;
71806;SDS011;59655;42.590;23.364;2024-03-29T14:30:26;5.18;;;1.52;;
71806;SDS011;59655;42.590;23.364;2024-03-29T14:32:56;6.38;;;1.15;;
71806;SDS011;59655;42.590;23.364;2024-03-29T14:35:22;5.57;;;1.38;;
71806;SDS011;59655;42.590;23.364;2024-03-29T14:37:47;8.13;;;1.50;;
71806;SDS011;59655;42.590;23.364;2024-03-29T14:40:15;7.68;;;1.40;;
71806;SDS011;59655;42.590;23.364;2024-03-29T14:42:41;6.13;;;1.23;;
71806;SDS011;59655;42.590;23.364;2024-03-29T14:45:07;11.45;;;1.98;;
71806;SDS011;59655;42.590;23.364;2024-03-29T14:47:33;6.78;;;1.60;;
71806;SDS011;59655;42.590;23.364;2024-03-29T14:50:01;7.35;;;1.30;;
71806;SDS011;59655;42.590;23.364;2024-03-29T14:52:30;11.45;;;1.63;;